Time,TemperatureF,DewpointF,PressureIn,WindDirection,WindDirectionDegrees,WindSpeedMPH,WindSpeedGustMPH,Humidity,HourlyPrecipIn,Conditions,Clouds,dailyrainin,SolarRadiationWatts/m^2,SoftwareType,DateUTC
2013-03-22 00:01:00,62.7,30.8,29.63,NNE,28,3.0,5.0,30,0.00,,,0.00,0,WeatherCatV1.02B3,2013-03-22 07:01:00,
2013-03-22 00:06:00,63.4,28.8,29.63,NW,322,4.0,5.0,27,0.00,,,0.00,0,WeatherCatV1.02B3,2013-03-22 07:06:00,
2013-03-22 00:11:00,64.1,28.5,29.63,ENE,67,2.0,7.0,26,0.00,,,0.00,0,WeatherCatV1.02B3,2013-03-22 07:11:00,
2013-03-22 00:16:00,64.0,28.4,29.63,NW,306,2.0,4.0,26,0.00,,,0.00,0,WeatherCatV1.02B3,2013-03-22 07:16:00,
2013-03-22 00:21:00,64.1,26.6,29.63,West,274,1.0,4.0,24,0.00,,,0.00,0,WeatherCatV1.02B3,2013-03-22 07:21:00,
2013-03-22 00:26:00,64.2,27.6,29.63,NW,309,4.0,6.0,25,0.00,,,0.00,0,WeatherCatV1.02B3,2013-03-22 07:26:00,
2013-03-22 00:31:00,64.3,25.7,29.63,WNW,285,1.0,11.0,23,0.00,,,0.00,0,WeatherCatV1.02B3,2013-03-22 07:31:00,
2013-03-22 00:36:00,64.7,26.0,29.63,SSE,153,2.0,4.0,23,0.00,,,0.00,0,WeatherCatV1.02B3,2013-03-22 07:36:00,
2013-03-22 00:41:00,64.2,26.7,29.63,East,86,2.0,2.0,24,0.00,,,0.00,0,WeatherCatV1.02B3,2013-03-22 07:41:00,
2013-03-22 00:46:00,62.9,25.6,29.63,South,173,1.0,7.0,24,0.00,,,0.00,0,WeatherCatV1.02B3,2013-03-22 07:46:00,
2013-03-22 00:51:00,63.1,25.7,29.63,NNW,335,0.0,4.0,24,0.00,,,0.00,0,WeatherCatV1.02B3,2013-03-22 07:51:00,
2013-03-22 00:56:00,62.9,23.5,29.63,East,92,0.0,2.0,22,0.00,,,0.00,0,WeatherCatV1.02B3,2013-03-22 07:56:00,
2013-03-22 01:01:00,63.2,22.6,29.63,SW,232,2.0,5.0,21,0.00,,,0.00,0,WeatherCatV1.02B3,2013-03-22 08:01:00,
2013-03-22 01:06:00,63.6,21.8,29.63,SSE,162,3.0,5.0,20,0.00,,,0.00,0,WeatherCatV1.02B3,2013-03-22 08:06:00,
2013-03-22 01:11:00,63.7,20.7,29.63,West,274,2.0,5.0,19,0.00,,,0.00,0,WeatherCatV1.02B3,2013-03-22 08:11:00,
2013-03-22 01:16:00,63.8,20.8,29.63,SW,232,2.0,3.0,19,0.00,,,0.00,0,WeatherCatV1.02B3,2013-03-22 08:16:00,
2013-03-22 01:21:00,63.6,20.6,29.63,WNW,292,4.0,7.0,19,0.00,,,0.00,0,WeatherCatV1.02B3,2013-03-22 08:21:00,
2013-03-22 01:26:00,63.6,16.6,29.63,WSW,238,6.0,9.0,16,0.00,,,0.00,0,WeatherCatV1.02B3,2013-03-22 08:26:00,
2013-03-22 01:31:00,63.8,16.8,29.63,SSW,211,1.0,7.0,16,0.00,,,0.00,0,WeatherCatV1.02B3,2013-03-22 08:31:00,
2013-03-22 01:36:00,63.9,18.2,29.63,WSW,251,4.0,9.0,17,0.00,,,0.00,0,WeatherCatV1.02B3,2013-03-22 08:36:00,
2013-03-22 01:41:00,63.6,16.6,29.63,NNW,331,0.0,6.0,16,0.00,,,0.00,0,WeatherCatV1.02B3,2013-03-22 08:41:00,
2013-03-22 01:46:00,63.4,16.4,29.63,SSW,202,3.0,5.0,16,0.00,,,0.00,0,WeatherCatV1.02B3,2013-03-22 08:46:00,
2013-03-22 01:51:00,63.3,17.8,29.63,West,273,5.0,6.0,17,0.00,,,0.00,0,WeatherCatV1.02B3,2013-03-22 08:51:00,
2013-03-22 01:56:00,63.4,16.4,29.63,WNW,303,1.0,9.0,16,0.00,,,0.00,0,WeatherCatV1.02B3,2013-03-22 08:56:00,
2013-03-22 02:01:00,62.8,19.9,29.63,North,0,2.0,4.0,19,0.00,,,0.00,0,WeatherCatV1.02B3,2013-03-22 09:01:00,
2013-03-22 02:06:00,62.1,18.1,29.63,WSW,252,0.0,3.0,18,0.00,,,0.00,0,WeatherCatV1.02B3,2013-03-22 09:06:00,
2013-03-22 02:11:00,62.2,19.4,29.63,North,355,3.0,4.0,19,0.00,,,0.00,0,WeatherCatV1.02B3,2013-03-22 09:11:00,
2013-03-22 02:16:00,61.0,21.9,29.63,WNW,288,2.0,4.0,22,0.00,,,0.00,0,WeatherCatV1.02B3,2013-03-22 09:16:00,
2013-03-22 02:21:00,58.6,21.9,29.63,West,269,2.0,4.0,24,0.00,,,0.00,0,WeatherCatV1.02B3,2013-03-22 09:21:00,
2013-03-22 02:26:00,58.8,22.1,29.63,NW,311,4.0,5.0,24,0.00,,,0.00,0,WeatherCatV1.02B3,2013-03-22 09:26:00,
2013-03-22 02:31:00,60.7,20.5,29.63,NNE,22,2.0,4.0,21,0.00,,,0.00,0,WeatherCatV1.02B3,2013-03-22 09:31:00,
2013-03-22 02:36:00,60.4,21.4,29.63,NNE,19,2.0,5.0,22,0.00,,,0.00,0,WeatherCatV1.02B3,2013-03-22 09:36:00,
2013-03-22 02:41:00,60.7,21.6,29.63,WNW,289,0.0,5.0,22,0.00,,,0.00,0,WeatherCatV1.02B3,2013-03-22 09:41:00,
2013-03-22 02:46:00,60.6,22.6,29.63,North,11,6.0,7.0,23,0.00,,,0.00,0,WeatherCatV1.02B3,2013-03-22 09:46:00,
2013-03-22 02:51:00,61.2,19.8,29.63,NNW,330,2.0,13.0,20,0.00,,,0.00,0,WeatherCatV1.02B3,2013-03-22 09:51:00,
2013-03-22 02:56:00,61.9,21.5,29.63,NW,305,2.0,6.0,21,0.00,,,0.00,0,WeatherCatV1.02B3,2013-03-22 09:56:00,
2013-03-22 03:01:00,61.5,22.3,29.63,WNW,292,5.0,5.0,22,0.00,,,0.00,0,WeatherCatV1.02B3,2013-03-22 10:01:00,
2013-03-22 03:06:00,61.5,21.2,29.63,NE,40,0.0,3.0,21,0.00,,,0.00,0,WeatherCatV1.02B3,2013-03-22 10:06:00,
2013-03-22 03:11:00,61.7,22.5,29.63,NNE,22,1.0,4.0,22,0.00,,,0.00,0,WeatherCatV1.02B3,2013-03-22 10:11:00,
2013-03-22 03:16:00,61.8,20.3,29.63,WNW,299,1.0,5.0,20,0.00,,,0.00,0,WeatherCatV1.02B3,2013-03-22 10:16:00,
2013-03-22 03:21:00,62.9,18.8,29.63,South,188,2.0,4.0,18,0.00,,,0.00,0,WeatherCatV1.02B3,2013-03-22 10:21:00,
2013-03-22 03:26:00,62.4,22.0,29.63,South,184,1.0,2.0,21,0.00,,,0.00,0,WeatherCatV1.02B3,2013-03-22 10:26:00,
2013-03-22 03:31:00,60.6,23.6,29.63,South,171,1.0,2.0,24,0.00,,,0.00,0,WeatherCatV1.02B3,2013-03-22 10:31:00,
2013-03-22 03:36:00,60.5,21.5,29.63,SE,139,1.0,4.0,22,0.00,,,0.00,0,WeatherCatV1.02B3,2013-03-22 10:36:00,
2013-03-22 03:41:00,60.6,23.6,29.63,SE,140,1.0,4.0,24,0.00,,,0.00,0,WeatherCatV1.02B3,2013-03-22 10:41:00,
2013-03-22 03:46:00,60.5,23.5,29.63,West,267,1.0,5.0,24,0.00,,,0.00,0,WeatherCatV1.02B3,2013-03-22 10:46:00,
2013-03-22 03:51:00,59.8,24.9,29.63,SSW,197,0.0,0.0,26,0.00,,,0.00,0,WeatherCatV1.02B3,2013-03-22 10:51:00,
2013-03-22 03:56:00,57.1,27.5,29.63,NW,315,0.0,2.0,32,0.00,,,0.00,0,WeatherCatV1.02B3,2013-03-22 10:56:00,
2013-03-22 04:01:00,54.1,25.6,29.63,NW,315,1.0,1.0,33,0.00,,,0.00,0,WeatherCatV1.02B3,2013-03-22 11:01:00,
2013-03-22 04:06:00,53.7,26.0,29.63,SSW,202,0.0,2.0,34,0.00,,,0.00,0,WeatherCatV1.02B3,2013-03-22 11:06:00,
2013-03-22 04:11:00,54.0,25.6,29.63,South,182,0.0,2.0,33,0.00,,,0.00,0,WeatherCatV1.02B3,2013-03-22 11:11:00,
2013-03-22 04:16:00,53.9,25.5,29.63,NW,321,2.0,3.0,33,0.00,,,0.00,0,WeatherCatV1.02B3,2013-03-22 11:16:00,
2013-03-22 04:21:00,54.1,26.4,29.63,NW,321,0.0,2.0,34,0.00,,,0.00,0,WeatherCatV1.02B3,2013-03-22 11:21:00,
2013-03-22 04:26:00,54.4,25.9,29.63,NNW,348,0.0,3.0,33,0.00,,,0.00,0,WeatherCatV1.02B3,2013-03-22 11:26:00,
2013-03-22 04:31:00,54.6,27.5,29.63,NW,315,0.0,4.0,35,0.00,,,0.00,0,WeatherCatV1.02B3,2013-03-22 11:31:00,
2013-03-22 04:36:00,54.5,26.0,29.63,North,5,1.0,2.0,33,0.00,,,0.00,0,WeatherCatV1.02B3,2013-03-22 11:36:00,
2013-03-22 04:41:00,53.7,26.7,29.63,NNW,339,1.0,3.0,35,0.00,,,0.00,0,WeatherCatV1.02B3,2013-03-22 11:41:00,
2013-03-22 04:46:00,53.0,27.4,29.63,NE,44,1.0,5.0,37,0.00,,,0.00,0,WeatherCatV1.02B3,2013-03-22 11:46:00,
2013-03-22 04:51:00,53.6,25.9,29.63,NNE,29,2.0,3.0,34,0.00,,,0.00,0,WeatherCatV1.02B3,2013-03-22 11:51:00,
2013-03-22 04:56:00,54.5,26.7,29.63,NNW,344,0.0,1.0,34,0.00,,,0.00,0,WeatherCatV1.02B3,2013-03-22 11:56:00,
2013-03-22 05:01:00,53.5,27.2,29.63,NNE,19,0.0,1.0,36,0.00,,,0.00,0,WeatherCatV1.02B3,2013-03-22 12:01:00,
2013-03-22 05:06:00,53.4,26.4,29.63,NNE,12,0.0,2.0,35,0.00,,,0.00,0,WeatherCatV1.02B3,2013-03-22 12:06:00,
2013-03-22 05:11:00,54.7,26.9,29.63,SE,131,2.0,3.0,34,0.00,,,0.00,0,WeatherCatV1.02B3,2013-03-22 12:11:00,
2013-03-22 05:16:00,54.6,26.8,29.63,ESE,113,2.0,2.0,34,0.00,,,0.00,0,WeatherCatV1.02B3,2013-03-22 12:16:00,
2013-03-22 05:21:00,53.6,27.3,29.63,North,11,0.0,2.0,36,0.00,,,0.00,0,WeatherCatV1.02B3,2013-03-22 12:21:00,
2013-03-22 05:26:00,52.6,27.1,29.63,ENE,67,2.0,3.0,37,0.00,,,0.00,0,WeatherCatV1.02B3,2013-03-22 12:26:00,
2013-03-22 05:31:00,54.1,27.1,29.63,NNE,28,0.0,1.0,35,0.00,,,0.00,0,WeatherCatV1.02B3,2013-03-22 12:31:00,
2013-03-22 05:36:00,53.2,28.9,29.63,NNE,27,0.0,2.0,39,0.00,,,0.00,0,WeatherCatV1.02B3,2013-03-22 12:36:00,
2013-03-22 05:41:00,51.2,27.7,29.63,NNE,27,0.0,1.0,40,0.00,,,0.00,0,WeatherCatV1.02B3,2013-03-22 12:41:00,
2013-03-22 05:46:00,51.3,29.0,29.63,NNE,27,0.0,1.0,42,0.00,,,0.00,0,WeatherCatV1.02B3,2013-03-22 12:46:00,
2013-03-22 05:51:00,51.4,27.9,29.63,NW,313,0.0,3.0,40,0.00,,,0.00,0,WeatherCatV1.02B3,2013-03-22 12:51:00,
2013-03-22 05:56:00,52.3,28.7,29.63,NE,42,0.0,2.0,40,0.00,,,0.00,0,WeatherCatV1.02B3,2013-03-22 12:56:00,
2013-03-22 06:01:00,51.7,29.4,29.63,NE,49,0.0,1.0,42,0.00,,,0.00,0,WeatherCatV1.02B3,2013-03-22 13:01:00,
2013-03-22 06:06:00,50.5,29.4,29.63,NE,47,0.0,0.0,44,0.00,,,0.00,0,WeatherCatV1.02B3,2013-03-22 13:06:00,
2013-03-22 06:11:00,49.4,28.4,29.63,NE,44,1.0,1.0,44,0.00,,,0.00,0,WeatherCatV1.02B3,2013-03-22 13:11:00,
2013-03-22 06:16:00,49.9,28.9,29.63,NE,44,0.0,2.0,44,0.00,,,0.00,0,WeatherCatV1.02B3,2013-03-22 13:16:00,
2013-03-22 06:21:00,50.0,28.4,29.63,North,0,1.0,2.0,43,0.00,,,0.00,0,WeatherCatV1.02B3,2013-03-22 13:21:00,
2013-03-22 06:26:00,50.1,29.0,29.63,SSE,151,0.0,2.0,44,0.00,,,0.00,0,WeatherCatV1.02B3,2013-03-22 13:26:00,
2013-03-22 06:31:00,47.9,29.2,29.63,West,262,0.0,0.0,48,0.00,,,0.00,0,WeatherCatV1.02B3,2013-03-22 13:31:00,
2013-03-22 06:36:00,45.7,30.0,29.63,West,262,0.0,0.0,54,0.00,,,0.00,0,WeatherCatV1.02B3,2013-03-22 13:36:00,
2013-03-22 06:41:00,45.7,30.0,29.63,West,262,0.0,0.0,54,0.00,,,0.00,0,WeatherCatV1.02B3,2013-03-22 13:41:00,
2013-03-22 06:46:00,45.1,29.9,29.63,West,262,0.0,0.0,55,0.00,,,0.00,0,WeatherCatV1.02B3,2013-03-22 13:46:00,
2013-03-22 06:51:00,44.5,30.2,29.63,West,262,0.0,1.0,57,0.00,,,0.00,0,WeatherCatV1.02B3,2013-03-22 13:51:00,
2013-03-22 06:56:00,44.6,30.7,29.63,West,262,0.0,1.0,58,0.00,,,0.00,0,WeatherCatV1.02B3,2013-03-22 13:56:00,
2013-03-22 07:01:00,45.4,30.6,29.63,West,262,0.0,1.0,56,0.00,,,0.00,7,WeatherCatV1.02B3,2013-03-22 14:01:00,
2013-03-22 07:06:00,45.4,30.6,29.63,NNE,26,0.0,1.0,56,0.00,,,0.00,9,WeatherCatV1.02B3,2013-03-22 14:06:00,
2013-03-22 07:11:00,47.4,30.7,29.63,NNE,15,1.0,3.0,52,0.00,,,0.00,12,WeatherCatV1.02B3,2013-03-22 14:11:00,
2013-03-22 07:16:00,48.3,32.0,29.63,East,92,0.0,2.0,53,0.00,,,0.00,16,WeatherCatV1.02B3,2013-03-22 14:16:00,
2013-03-22 07:21:00,46.7,31.4,29.63,NNW,333,2.0,3.0,55,0.00,,,0.00,18,WeatherCatV1.02B3,2013-03-22 14:21:00,
2013-03-22 07:26:00,47.3,32.4,29.63,ENE,71,0.0,1.0,56,0.00,,,0.00,21,WeatherCatV1.02B3,2013-03-22 14:26:00,
2013-03-22 07:31:00,46.8,32.4,29.63,NNE,17,0.0,1.0,57,0.00,,,0.00,25,WeatherCatV1.02B3,2013-03-22 14:31:00,
2013-03-22 07:36:00,46.7,32.3,29.63,WSW,243,0.0,3.0,57,0.00,,,0.00,26,WeatherCatV1.02B3,2013-03-22 14:36:00,
2013-03-22 07:41:00,45.9,32.8,29.63,SE,132,0.0,1.0,60,0.00,,,0.00,30,WeatherCatV1.02B3,2013-03-22 14:41:00,
2013-03-22 07:46:00,44.8,32.6,29.63,SE,132,0.0,0.0,62,0.00,,,0.00,32,WeatherCatV1.02B3,2013-03-22 14:46:00,
2013-03-22 07:51:00,44.3,32.9,29.63,SE,132,0.0,0.0,64,0.00,,,0.00,33,WeatherCatV1.02B3,2013-03-22 14:51:00,
2013-03-22 07:56:00,44.4,33.4,29.63,SE,132,0.0,0.0,65,0.00,,,0.00,35,WeatherCatV1.02B3,2013-03-22 14:56:00,
2013-03-22 08:01:00,45.0,33.2,29.63,SE,132,0.0,1.0,63,0.00,,,0.00,37,WeatherCatV1.02B3,2013-03-22 15:01:00,
2013-03-22 08:06:00,45.6,34.5,29.63,East,96,0.0,2.0,65,0.00,,,0.00,40,WeatherCatV1.02B3,2013-03-22 15:06:00,
2013-03-22 08:11:00,46.0,34.1,29.63,East,96,0.0,0.0,63,0.00,,,0.00,42,WeatherCatV1.02B3,2013-03-22 15:11:00,
2013-03-22 08:17:00,46.7,35.2,29.63,East,96,1.0,1.0,64,0.00,,,0.00,44,WeatherCatV1.02B3,2013-03-22 15:17:00,
2013-03-22 08:22:00,47.1,35.2,29.63,East,95,0.0,1.0,63,0.00,,,0.00,46,WeatherCatV1.02B3,2013-03-22 15:22:00,
2013-03-22 08:27:00,49.6,35.4,29.63,NNW,348,0.0,3.0,58,0.00,,,0.00,60,WeatherCatV1.02B3,2013-03-22 15:27:00,
2013-03-22 08:32:00,50.9,33.9,29.63,NNE,22,5.0,5.0,52,0.00,,,0.00,248,WeatherCatV1.02B3,2013-03-22 15:32:00,
2013-03-22 08:37:00,52.0,35.4,29.63,North,0,0.0,0.0,53,0.00,,,0.00,253,WeatherCatV1.02B3,2013-03-22 15:37:00,
2013-03-22 08:42:00,53.0,37.3,29.63,SSE,167,2.0,3.0,55,0.00,,,0.00,171,WeatherCatV1.02B3,2013-03-22 15:42:00,
2013-03-22 08:47:00,53.3,34.6,29.63,SW,236,2.0,2.0,49,0.00,,,0.00,174,WeatherCatV1.02B3,2013-03-22 15:47:00,
2013-03-22 08:52:00,54.5,37.2,29.63,WSW,247,0.0,1.0,52,0.00,,,0.00,304,WeatherCatV1.02B3,2013-03-22 15:52:00,
2013-03-22 08:57:00,55.1,36.3,29.63,West,271,0.0,2.0,49,0.00,,,0.00,227,WeatherCatV1.02B3,2013-03-22 15:57:00,
2013-03-22 09:02:00,55.8,36.9,29.63,West,275,0.0,1.0,49,0.00,,,0.00,260,WeatherCatV1.02B3,2013-03-22 16:02:00,
2013-03-22 09:07:00,57.0,35.9,29.63,WSW,246,0.0,1.0,45,0.00,,,0.00,394,WeatherCatV1.02B3,2013-03-22 16:07:00,
2013-03-22 09:12:00,58.0,36.8,29.63,WSW,246,0.0,1.0,45,0.00,,,0.00,417,WeatherCatV1.02B3,2013-03-22 16:12:00,
2013-03-22 09:17:00,59.4,39.2,29.63,WSW,238,0.0,1.0,47,0.00,,,0.00,432,WeatherCatV1.02B3,2013-03-22 16:17:00,
2013-03-22 09:22:00,59.8,39.0,29.63,East,97,2.0,2.0,46,0.00,,,0.00,450,WeatherCatV1.02B3,2013-03-22 16:22:00,
2013-03-22 09:27:00,60.2,38.2,29.63,North,349,0.0,1.0,44,0.00,,,0.00,469,WeatherCatV1.02B3,2013-03-22 16:27:00,
2013-03-22 09:32:00,60.6,34.9,29.63,SSE,155,0.0,1.0,38,0.00,,,0.00,487,WeatherCatV1.02B3,2013-03-22 16:32:00,
2013-03-22 09:37:00,61.1,35.3,29.63,South,187,0.0,1.0,38,0.00,,,0.00,503,WeatherCatV1.02B3,2013-03-22 16:37:00,
2013-03-22 09:41:00,63.1,39.0,29.63,SSE,164,0.0,1.0,41,0.00,,,0.00,520,WeatherCatV1.02B3,2013-03-22 16:41:00,
2013-03-22 09:46:00,64.5,41.5,29.63,ENE,67,0.0,1.0,43,0.00,,,0.00,534,WeatherCatV1.02B3,2013-03-22 16:46:00,
2013-03-22 09:51:00,65.0,41.3,29.63,SE,145,0.0,1.0,42,0.00,,,0.00,548,WeatherCatV1.02B3,2013-03-22 16:51:00,
2013-03-22 09:56:00,65.3,36.9,29.63,South,184,0.0,1.0,35,0.00,,,0.00,564,WeatherCatV1.02B3,2013-03-22 16:56:00,
2013-03-22 10:01:00,64.2,36.0,29.63,East,101,1.0,2.0,35,0.00,,,0.00,578,WeatherCatV1.02B3,2013-03-22 17:01:00,
2013-03-22 10:07:00,64.8,37.9,29.63,ESE,112,0.0,1.0,37,0.00,,,0.00,598,WeatherCatV1.02B3,2013-03-22 17:07:00,
2013-03-22 10:12:00,66.3,39.2,29.63,WSW,254,0.0,1.0,37,0.00,,,0.00,612,WeatherCatV1.02B3,2013-03-22 17:12:00,
2013-03-22 10:17:00,67.2,38.6,29.63,WSW,255,0.0,0.0,35,0.00,,,0.00,628,WeatherCatV1.02B3,2013-03-22 17:17:00,
2013-03-22 10:22:00,66.2,34.7,29.63,SSW,212,0.0,3.0,31,0.00,,,0.00,640,WeatherCatV1.02B3,2013-03-22 17:22:00,
2013-03-22 10:27:00,66.5,39.4,29.63,SSE,156,2.0,3.0,37,0.00,,,0.00,656,WeatherCatV1.02B3,2013-03-22 17:27:00,
2013-03-22 10:32:00,68.3,37.3,29.63,SE,137,0.0,3.0,32,0.00,,,0.00,670,WeatherCatV1.02B3,2013-03-22 17:32:00,
2013-03-22 10:37:00,68.0,37.0,29.63,NNE,26,0.0,1.0,32,0.00,,,0.00,679,WeatherCatV1.02B3,2013-03-22 17:37:00,
2013-03-22 10:42:00,67.7,36.0,29.63,WSW,257,0.0,1.0,31,0.00,,,0.00,691,WeatherCatV1.02B3,2013-03-22 17:42:00,
2013-03-22 10:47:00,69.0,36.3,29.63,West,279,0.0,2.0,30,0.00,,,0.00,700,WeatherCatV1.02B3,2013-03-22 17:47:00,
2013-03-22 10:52:00,68.8,39.3,29.63,NNE,14,1.0,2.0,34,0.00,,,0.00,712,WeatherCatV1.02B3,2013-03-22 17:52:00,
2013-03-22 10:57:00,69.7,37.7,29.63,SSE,148,1.0,3.0,31,0.00,,,0.00,726,WeatherCatV1.02B3,2013-03-22 17:57:00,
2013-03-22 11:02:00,71.7,41.0,29.63,SW,229,2.0,3.0,33,0.00,,,0.00,742,WeatherCatV1.02B3,2013-03-22 18:02:00,
2013-03-22 11:07:00,70.7,41.7,29.63,WSW,246,3.0,3.0,35,0.00,,,0.00,751,WeatherCatV1.02B3,2013-03-22 18:07:00,
2013-03-22 11:12:00,71.5,41.6,29.63,WSW,257,0.0,3.0,34,0.00,,,0.00,763,WeatherCatV1.02B3,2013-03-22 18:12:00,
2013-03-22 11:17:00,72.1,40.6,29.63,WSW,257,1.0,2.0,32,0.00,,,0.00,770,WeatherCatV1.02B3,2013-03-22 18:17:00,
2013-03-22 11:22:00,71.4,40.0,29.63,WNW,285,1.0,2.0,32,0.00,,,0.00,780,WeatherCatV1.02B3,2013-03-22 18:22:00,
2013-03-22 11:27:00,72.0,42.8,29.63,WNW,294,3.0,3.0,35,0.00,,,0.00,784,WeatherCatV1.02B3,2013-03-22 18:27:00,
2013-03-22 11:32:00,72.4,44.6,29.63,NNW,336,2.0,4.0,37,0.00,,,0.00,786,WeatherCatV1.02B3,2013-03-22 18:32:00,
2013-03-22 11:37:00,72.3,45.3,29.63,WNW,288,2.0,5.0,38,0.00,,,0.00,798,WeatherCatV1.02B3,2013-03-22 18:37:00,
2013-03-22 11:42:00,72.6,44.1,29.63,ENE,63,2.0,2.0,36,0.00,,,0.00,805,WeatherCatV1.02B3,2013-03-22 18:42:00,
2013-03-22 11:47:00,72.1,43.7,29.63,East,84,0.0,4.0,36,0.00,,,0.00,810,WeatherCatV1.02B3,2013-03-22 18:47:00,
2013-03-22 11:52:00,72.9,44.4,29.63,ENE,60,0.0,3.0,36,0.00,,,0.00,816,WeatherCatV1.02B3,2013-03-22 18:52:00,
2013-03-22 11:57:00,73.0,40.6,29.63,WNW,284,3.0,4.0,31,0.00,,,0.00,830,WeatherCatV1.02B3,2013-03-22 18:57:00,
2013-03-22 12:02:00,73.6,38.5,29.63,WNW,298,0.0,1.0,28,0.00,,,0.00,838,WeatherCatV1.02B3,2013-03-22 19:02:00,
2013-03-22 12:07:00,74.3,36.2,29.63,West,275,2.0,5.0,25,0.00,,,0.00,842,WeatherCatV1.02B3,2013-03-22 19:07:00,
2013-03-22 12:12:00,75.9,35.4,29.63,NW,312,2.0,2.0,23,0.00,,,0.00,849,WeatherCatV1.02B3,2013-03-22 19:12:00,
2013-03-22 12:17:00,74.5,38.3,29.63,WNW,299,2.0,3.0,27,0.00,,,0.00,858,WeatherCatV1.02B3,2013-03-22 19:17:00,
2013-03-22 12:22:00,74.7,37.5,29.63,West,275,2.0,5.0,26,0.00,,,0.00,854,WeatherCatV1.02B3,2013-03-22 19:22:00,
2013-03-22 12:27:00,75.8,36.4,29.63,NE,49,0.0,2.0,24,0.00,,,0.00,861,WeatherCatV1.02B3,2013-03-22 19:27:00,
2013-03-22 12:32:00,76.4,31.1,29.63,North,350,3.0,3.0,19,0.00,,,0.00,867,WeatherCatV1.02B3,2013-03-22 19:32:00,
2013-03-22 12:37:00,75.1,32.5,29.63,WSW,252,0.0,7.0,21,0.00,,,0.00,865,WeatherCatV1.02B3,2013-03-22 19:37:00,
2013-03-22 12:42:00,75.7,35.3,29.63,West,279,1.0,3.0,23,0.00,,,0.00,870,WeatherCatV1.02B3,2013-03-22 19:42:00,
2013-03-22 12:47:00,77.0,42.3,29.63,WSW,254,3.0,4.0,29,0.00,,,0.00,872,WeatherCatV1.02B3,2013-03-22 19:47:00,
2013-03-22 12:52:00,77.3,46.7,29.63,ENE,57,0.0,7.0,34,0.00,,,0.00,867,WeatherCatV1.02B3,2013-03-22 19:52:00,
2013-03-22 12:57:00,76.7,44.6,29.63,NNE,30,3.0,3.0,32,0.00,,,0.00,868,WeatherCatV1.02B3,2013-03-22 19:57:00,
2013-03-22 13:02:00,76.9,41.3,29.63,NE,49,2.0,6.0,28,0.00,,,0.00,868,WeatherCatV1.02B3,2013-03-22 20:02:00,
2013-03-22 13:07:00,76.6,41.9,29.63,East,98,1.0,3.0,29,0.00,,,0.00,870,WeatherCatV1.02B3,2013-03-22 20:07:00,
2013-03-22 13:12:00,76.9,43.9,29.63,NE,49,0.0,2.0,31,0.00,,,0.00,872,WeatherCatV1.02B3,2013-03-22 20:12:00,
2013-03-22 13:17:00,76.1,42.4,29.63,North,355,2.0,3.0,30,0.00,,,0.00,868,WeatherCatV1.02B3,2013-03-22 20:17:00,
2013-03-22 13:22:00,76.6,42.8,29.63,East,80,1.0,3.0,30,0.00,,,0.00,865,WeatherCatV1.02B3,2013-03-22 20:22:00,
2013-03-22 13:27:00,77.6,43.7,29.63,ENE,78,3.0,4.0,30,0.00,,,0.00,863,WeatherCatV1.02B3,2013-03-22 20:27:00,
2013-03-22 13:32:00,77.2,41.6,29.63,ENE,70,2.0,7.0,28,0.00,,,0.00,854,WeatherCatV1.02B3,2013-03-22 20:32:00,
2013-03-22 13:37:00,76.6,41.9,29.63,East,89,2.0,5.0,29,0.00,,,0.00,856,WeatherCatV1.02B3,2013-03-22 20:37:00,
2013-03-22 13:42:00,76.7,41.1,29.63,ESE,117,2.0,5.0,28,0.00,,,0.00,851,WeatherCatV1.02B3,2013-03-22 20:42:00,
2013-03-22 13:47:00,76.2,45.0,29.63,NE,36,1.0,2.0,33,0.00,,,0.00,847,WeatherCatV1.02B3,2013-03-22 20:47:00,
2013-03-22 13:52:00,76.7,41.1,29.63,NE,38,1.0,1.0,28,0.00,,,0.00,842,WeatherCatV1.02B3,2013-03-22 20:52:00,
2013-03-22 13:57:00,77.1,40.5,29.63,NNE,17,0.0,2.0,27,0.00,,,0.00,840,WeatherCatV1.02B3,2013-03-22 20:57:00,
2013-03-22 14:02:00,76.9,41.3,29.63,NW,325,2.0,5.0,28,0.00,,,0.00,835,WeatherCatV1.02B3,2013-03-22 21:02:00,
2013-03-22 14:07:00,76.5,35.9,29.63,NNW,341,0.0,3.0,23,0.00,,,0.00,823,WeatherCatV1.02B3,2013-03-22 21:07:00,
2013-03-22 14:12:00,76.1,37.7,29.63,East,90,2.0,7.0,25,0.00,,,0.00,823,WeatherCatV1.02B3,2013-03-22 21:12:00,
2013-03-22 14:17:00,76.2,38.8,29.63,NNE,26,2.0,2.0,26,0.00,,,0.00,814,WeatherCatV1.02B3,2013-03-22 21:17:00,
2013-03-22 14:22:00,77.0,37.4,29.63,East,101,2.0,4.0,24,0.00,,,0.00,807,WeatherCatV1.02B3,2013-03-22 21:22:00,
2013-03-22 14:27:00,76.4,38.0,29.63,West,277,0.0,1.0,25,0.00,,,0.00,800,WeatherCatV1.02B3,2013-03-22 21:27:00,
2013-03-22 14:32:00,75.6,37.3,29.63,East,89,2.0,5.0,25,0.00,,,0.00,789,WeatherCatV1.02B3,2013-03-22 21:32:00,
2013-03-22 14:37:00,75.8,40.4,29.63,NNW,340,0.0,4.0,28,0.00,,,0.00,788,WeatherCatV1.02B3,2013-03-22 21:37:00,
2013-03-22 14:42:00,75.8,39.4,29.63,East,86,2.0,6.0,27,0.00,,,0.00,782,WeatherCatV1.02B3,2013-03-22 21:42:00,
2013-03-22 14:47:00,75.9,40.4,29.63,ENE,68,2.0,3.0,28,0.00,,,0.00,772,WeatherCatV1.02B3,2013-03-22 21:47:00,
2013-03-22 14:52:00,76.1,38.7,29.63,East,79,1.0,7.0,26,0.00,,,0.00,765,WeatherCatV1.02B3,2013-03-22 21:52:00,
2013-03-22 14:57:00,76.4,38.0,29.63,ENE,59,1.0,7.0,25,0.00,,,0.00,752,WeatherCatV1.02B3,2013-03-22 21:57:00,
2013-03-22 15:02:00,76.2,34.6,29.63,NNE,23,0.0,6.0,22,0.00,,,0.00,745,WeatherCatV1.02B3,2013-03-22 22:02:00,
2013-03-22 15:07:00,76.5,35.9,29.63,ENE,73,2.0,2.0,23,0.00,,,0.00,735,WeatherCatV1.02B3,2013-03-22 22:07:00,
2013-03-22 15:12:00,77.5,38.9,29.63,East,79,5.0,5.0,25,0.00,,,0.00,724,WeatherCatV1.02B3,2013-03-22 22:12:00,
2013-03-22 15:17:00,78.2,37.4,29.63,NNE,12,1.0,3.0,23,0.00,,,0.00,714,WeatherCatV1.02B3,2013-03-22 22:17:00,
2013-03-22 15:22:00,77.0,35.2,29.63,NE,38,1.0,3.0,22,0.00,,,0.00,700,WeatherCatV1.02B3,2013-03-22 22:22:00,
2013-03-22 15:27:00,77.7,35.8,29.63,ENE,67,0.0,3.0,22,0.00,,,0.00,689,WeatherCatV1.02B3,2013-03-22 22:27:00,
2013-03-22 15:32:00,77.5,36.8,29.63,ESE,103,1.0,2.0,23,0.00,,,0.00,677,WeatherCatV1.02B3,2013-03-22 22:32:00,
2013-03-22 15:37:00,77.2,36.5,29.63,ENE,61,2.0,3.0,23,0.00,,,0.00,673,WeatherCatV1.02B3,2013-03-22 22:37:00,
2013-03-22 15:42:00,76.8,33.9,29.63,East,88,3.0,6.0,21,0.00,,,0.00,657,WeatherCatV1.02B3,2013-03-22 22:42:00,
2013-03-22 15:47:00,76.2,36.8,29.63,ESE,115,0.0,3.0,24,0.00,,,0.00,643,WeatherCatV1.02B3,2013-03-22 22:47:00,
2013-03-22 15:52:00,77.1,36.4,29.63,East,79,0.0,4.0,23,0.00,,,0.00,626,WeatherCatV1.02B3,2013-03-22 22:52:00,
2013-03-22 15:57:00,77.5,34.5,29.63,East,84,1.0,2.0,21,0.00,,,0.00,610,WeatherCatV1.02B3,2013-03-22 22:57:00,
2013-03-22 16:02:00,77.8,32.2,29.63,SE,136,2.0,3.0,19,0.00,,,0.00,594,WeatherCatV1.02B3,2013-03-22 23:02:00,
2013-03-22 16:07:00,78.3,36.3,29.63,ENE,65,1.0,3.0,22,0.00,,,0.00,577,WeatherCatV1.02B3,2013-03-22 23:07:00,
2013-03-22 16:12:00,77.5,33.3,29.63,NNE,24,1.0,2.0,20,0.00,,,0.00,557,WeatherCatV1.02B3,2013-03-22 23:12:00,
2013-03-22 16:17:00,77.3,34.3,29.63,ENE,67,2.0,2.0,21,0.00,,,0.00,550,WeatherCatV1.02B3,2013-03-22 23:17:00,
2013-03-22 16:22:00,77.8,33.5,29.63,ENE,77,2.0,4.0,20,0.00,,,0.00,527,WeatherCatV1.02B3,2013-03-22 23:22:00,
2013-03-22 16:27:00,77.5,33.3,29.63,SSE,156,0.0,3.0,20,0.00,,,0.00,508,WeatherCatV1.02B3,2013-03-22 23:27:00,
2013-03-22 16:32:00,77.2,33.0,29.63,ENE,77,3.0,3.0,20,0.00,,,0.00,499,WeatherCatV1.02B3,2013-03-22 23:32:00,
2013-03-22 16:37:00,77.4,33.2,29.63,WSW,252,2.0,2.0,20,0.00,,,0.00,478,WeatherCatV1.02B3,2013-03-22 23:37:00,
2013-03-22 16:42:00,78.3,25.2,29.63,WNW,289,4.0,7.0,14,0.00,,,0.00,459,WeatherCatV1.02B3,2013-03-22 23:42:00,
2013-03-22 16:47:00,78.7,25.5,29.63,SW,236,9.0,9.0,14,0.00,,,0.00,446,WeatherCatV1.02B3,2013-03-22 23:47:00,
2013-03-22 16:52:00,78.8,19.9,29.63,West,271,2.0,4.0,11,0.00,,,0.00,425,WeatherCatV1.02B3,2013-03-22 23:52:00,
2013-03-22 16:57:00,78.4,17.3,29.63,West,273,1.0,8.0,10,0.00,,,0.00,404,WeatherCatV1.02B3,2013-03-22 23:57:00,
2013-03-22 17:02:00,77.9,17.0,29.63,SW,220,5.0,10.0,10,0.00,,,0.00,390,WeatherCatV1.02B3,2013-03-23 00:02:00,
2013-03-22 17:07:00,77.3,18.7,29.63,WNW,282,4.0,6.0,11,0.00,,,0.00,371,WeatherCatV1.02B3,2013-03-23 00:07:00,
2013-03-22 17:12:00,76.8,18.3,29.63,SSW,205,3.0,7.0,11,0.00,,,0.00,357,WeatherCatV1.02B3,2013-03-23 00:12:00,
2013-03-22 17:17:00,76.4,20.0,29.63,WSW,252,3.0,11.0,12,0.00,,,0.00,339,WeatherCatV1.02B3,2013-03-23 00:17:00,
2013-03-22 17:22:00,76.0,15.5,29.63,West,279,4.0,6.0,10,0.00,,,0.00,327,WeatherCatV1.02B3,2013-03-23 00:22:00,
2013-03-22 17:27:00,75.6,19.4,29.63,South,184,8.0,9.0,12,0.00,,,0.00,308,WeatherCatV1.02B3,2013-03-23 00:27:00,
2013-03-22 17:32:00,75.1,19.0,29.63,SSE,147,2.0,6.0,12,0.00,,,0.00,294,WeatherCatV1.02B3,2013-03-23 00:32:00,
2013-03-22 17:37:00,74.6,16.6,29.63,NNW,335,5.0,7.0,11,0.00,,,0.00,274,WeatherCatV1.02B3,2013-03-23 00:37:00,
2013-03-22 17:42:00,74.1,18.3,29.63,WSW,248,3.0,3.0,12,0.00,,,0.00,253,WeatherCatV1.02B3,2013-03-23 00:42:00,
2013-03-22 17:47:00,73.9,16.1,29.63,WNW,286,4.0,11.0,11,0.00,,,0.00,234,WeatherCatV1.02B3,2013-03-23 00:47:00,
2013-03-22 17:52:00,73.5,15.8,29.63,WSW,243,4.0,7.0,11,0.00,,,0.00,211,WeatherCatV1.02B3,2013-03-23 00:52:00,
2013-03-22 17:57:00,73.5,13.6,29.63,NE,51,3.0,5.0,10,0.00,,,0.00,193,WeatherCatV1.02B3,2013-03-23 00:57:00,
2013-03-22 18:02:00,72.9,17.3,29.63,NNW,336,3.0,8.0,12,0.00,,,0.00,171,WeatherCatV1.02B3,2013-03-23 01:02:00,
2013-03-22 18:07:00,72.5,12.8,29.63,East,92,2.0,4.0,10,0.00,,,0.00,151,WeatherCatV1.02B3,2013-03-23 01:07:00,
2013-03-22 18:12:00,72.3,12.7,29.63,NNE,14,2.0,8.0,10,0.00,,,0.00,130,WeatherCatV1.02B3,2013-03-23 01:12:00,
2013-03-22 18:17:00,72.1,10.2,29.63,WSW,237,3.0,9.0,9,0.00,,,0.00,109,WeatherCatV1.02B3,2013-03-23 01:17:00,
2013-03-22 18:22:00,71.6,9.8,29.63,SSE,155,3.0,9.0,9,0.00,,,0.00,54,WeatherCatV1.02B3,2013-03-23 01:22:00,
2013-03-22 18:27:00,71.4,9.7,29.63,WSW,254,1.0,12.0,9,0.00,,,0.00,42,WeatherCatV1.02B3,2013-03-23 01:27:00,
2013-03-22 18:32:00,70.7,6.5,29.63,South,173,3.0,10.0,8,0.00,,,0.00,35,WeatherCatV1.02B3,2013-03-23 01:32:00,
2013-03-22 18:37:00,70.3,8.8,29.63,NE,42,3.0,10.0,9,0.00,,,0.00,32,WeatherCatV1.02B3,2013-03-23 01:37:00,
2013-03-22 18:42:00,70.3,11.2,29.63,WSW,242,2.0,5.0,10,0.00,,,0.00,28,WeatherCatV1.02B3,2013-03-23 01:42:00,
2013-03-22 18:47:00,70.2,6.2,29.63,SE,134,4.0,7.0,8,0.00,,,0.00,23,WeatherCatV1.02B3,2013-03-23 01:47:00,
2013-03-22 18:52:00,69.3,5.5,29.63,ESE,118,3.0,8.0,8,0.00,,,0.00,19,WeatherCatV1.02B3,2013-03-23 01:52:00,
2013-03-22 18:57:00,68.4,11.9,29.63,East,98,1.0,2.0,11,0.00,,,0.00,14,WeatherCatV1.02B3,2013-03-23 01:57:00,
2013-03-22 19:02:00,68.3,7.3,29.63,ESE,117,7.0,11.0,9,0.00,,,0.00,11,WeatherCatV1.02B3,2013-03-23 02:02:00,
2013-03-22 19:07:00,68.8,5.1,29.63,NW,317,5.0,9.0,8,0.00,,,0.00,9,WeatherCatV1.02B3,2013-03-23 02:07:00,
2013-03-22 19:12:00,68.7,10.0,29.63,SSW,198,0.0,2.0,10,0.00,,,0.00,5,WeatherCatV1.02B3,2013-03-23 02:12:00,
2013-03-22 19:17:00,67.3,13.0,29.63,NW,323,0.0,3.0,12,0.00,,,0.00,0,WeatherCatV1.02B3,2013-03-23 02:17:00,
2013-03-22 19:22:00,66.3,8.1,29.63,NE,37,4.0,7.0,10,0.00,,,0.00,0,WeatherCatV1.02B3,2013-03-23 02:22:00,
2013-03-22 19:27:00,66.6,10.5,29.63,ESE,118,3.0,3.0,11,0.00,,,0.00,0,WeatherCatV1.02B3,2013-03-23 02:27:00,
2013-03-22 19:32:00,66.4,10.3,29.63,SE,128,3.0,4.0,11,0.00,,,0.00,0,WeatherCatV1.02B3,2013-03-23 02:32:00,
2013-03-22 19:37:00,66.4,12.3,29.63,West,259,0.0,2.0,12,0.00,,,0.00,0,WeatherCatV1.02B3,2013-03-23 02:37:00,
2013-03-22 19:42:00,67.2,8.8,29.63,South,171,1.0,7.0,10,0.00,,,0.00,0,WeatherCatV1.02B3,2013-03-23 02:42:00,
2013-03-22 19:47:00,66.9,10.7,29.63,East,92,0.0,1.0,11,0.00,,,0.00,0,WeatherCatV1.02B3,2013-03-23 02:47:00,
2013-03-22 19:52:00,65.9,11.9,29.63,SSW,213,2.0,8.0,12,0.00,,,0.00,0,WeatherCatV1.02B3,2013-03-23 02:52:00,
2013-03-22 19:57:00,65.9,11.9,29.63,North,350,2.0,2.0,12,0.00,,,0.00,0,WeatherCatV1.02B3,2013-03-23 02:57:00,
2013-03-22 20:02:00,65.2,16.4,29.63,South,186,1.0,4.0,15,0.00,,,0.00,0,WeatherCatV1.02B3,2013-03-23 03:02:00,
2013-03-22 20:07:00,63.5,11.8,29.63,West,279,0.0,1.0,13,0.00,,,0.00,0,WeatherCatV1.02B3,2013-03-23 03:07:00,
2013-03-22 20:12:00,64.8,11.0,29.63,NNE,32,2.0,5.0,12,0.00,,,0.00,0,WeatherCatV1.02B3,2013-03-23 03:12:00,
2013-03-22 20:17:00,64.9,11.1,29.63,WNW,289,7.0,13.0,12,0.00,,,0.00,0,WeatherCatV1.02B3,2013-03-23 03:17:00,
2013-03-22 20:22:00,65.6,9.7,29.63,West,272,0.0,15.0,11,0.00,,,0.00,0,WeatherCatV1.02B3,2013-03-23 03:22:00,
2013-03-22 20:27:00,66.2,10.2,29.63,SW,236,5.0,5.0,11,0.00,,,0.00,0,WeatherCatV1.02B3,2013-03-23 03:27:00,
2013-03-22 20:32:00,66.1,10.1,29.63,North,0,8.0,8.0,11,0.00,,,0.00,0,WeatherCatV1.02B3,2013-03-23 03:32:00,
2013-03-22 20:37:00,65.8,11.8,29.63,ENE,70,2.0,6.0,12,0.00,,,0.00,0,WeatherCatV1.02B3,2013-03-23 03:37:00,
2013-03-22 20:42:00,64.9,14.6,29.63,SE,138,2.0,2.0,14,0.00,,,0.00,0,WeatherCatV1.02B3,2013-03-23 03:42:00,
2013-03-22 20:47:00,63.2,16.3,29.63,ESE,119,0.0,2.0,16,0.00,,,0.00,0,WeatherCatV1.02B3,2013-03-23 03:47:00,
2013-03-22 20:52:00,62.8,14.5,29.63,WSW,252,0.0,3.0,15,0.00,,,0.00,0,WeatherCatV1.02B3,2013-03-23 03:52:00,
2013-03-22 20:57:00,63.3,13.3,29.63,NE,39,3.0,3.0,14,0.00,,,0.00,0,WeatherCatV1.02B3,2013-03-23 03:57:00,
2013-03-22 21:00:00,63.8,12.0,29.63,South,180,0.0,5.0,13,0.00,,,0.00,0,WeatherCatV1.02B3,2013-03-23 04:00:00,
2013-03-22 21:05:00,63.3,11.6,29.63,NNW,348,0.0,2.0,13,0.00,,,0.00,0,WeatherCatV1.02B3,2013-03-23 04:05:00,
2013-03-22 21:10:00,63.4,9.9,29.63,NNW,340,1.0,8.0,12,0.00,,,0.00,0,WeatherCatV1.02B3,2013-03-23 04:10:00,
2013-03-22 21:15:00,63.8,12.0,29.63,South,187,0.0,9.0,13,0.00,,,0.00,0,WeatherCatV1.02B3,2013-03-23 04:15:00,
2013-03-22 21:16:00,63.7,12.0,29.63,SSE,150,1.0,2.0,13,0.00,,,0.00,0,WeatherCatV1.02B3,2013-03-23 04:16:00,
2013-03-22 21:21:00,63.6,11.9,29.63,WNW,283,2.0,5.0,13,0.00,,,0.00,0,WeatherCatV1.02B3,2013-03-23 04:21:00,
2013-03-22 21:26:00,63.5,10.0,29.63,West,274,4.0,9.0,12,0.00,,,0.00,0,WeatherCatV1.02B3,2013-03-23 04:26:00,
2013-03-22 21:31:00,63.5,13.5,29.63,SSW,209,2.0,5.0,14,0.00,,,0.00,0,WeatherCatV1.02B3,2013-03-23 04:31:00,
2013-03-22 21:36:00,62.4,12.6,29.63,South,182,3.0,3.0,14,0.00,,,0.00,0,WeatherCatV1.02B3,2013-03-23 04:36:00,
2013-03-22 21:41:00,62.0,12.3,29.63,East,84,1.0,5.0,14,0.00,,,0.00,0,WeatherCatV1.02B3,2013-03-23 04:41:00,
2013-03-22 21:46:00,63.2,11.6,29.63,NNE,31,2.0,3.0,13,0.00,,,0.00,0,WeatherCatV1.02B3,2013-03-23 04:46:00,
2013-03-22 21:51:00,62.2,14.0,29.63,ENE,65,2.0,6.0,15,0.00,,,0.00,0,WeatherCatV1.02B3,2013-03-23 04:51:00,
2013-03-22 21:56:00,62.7,7.5,29.63,East,84,3.0,7.0,11,0.00,,,0.00,0,WeatherCatV1.02B3,2013-03-23 04:56:00,
2013-03-22 22:01:00,63.1,7.8,29.63,East,89,2.0,6.0,11,0.00,,,0.00,0,WeatherCatV1.02B3,2013-03-23 05:01:00,
2013-03-22 22:06:00,62.5,12.7,29.63,East,100,0.0,3.0,14,0.00,,,0.00,0,WeatherCatV1.02B3,2013-03-23 05:06:00,
2013-03-22 22:11:00,60.4,15.4,29.63,South,186,1.0,3.0,17,0.00,,,0.00,0,WeatherCatV1.02B3,2013-03-23 05:11:00,
2013-03-22 22:16:00,60.6,7.7,29.63,ESE,117,0.0,2.0,12,0.00,,,0.00,0,WeatherCatV1.02B3,2013-03-23 05:16:00,
2013-03-22 22:21:00,61.0,11.5,29.63,NNW,331,0.0,4.0,14,0.00,,,0.00,0,WeatherCatV1.02B3,2013-03-23 05:21:00,
2013-03-22 22:26:00,60.2,12.4,29.63,NNW,342,0.0,3.0,15,0.00,,,0.00,0,WeatherCatV1.02B3,2013-03-23 05:26:00,
2013-03-22 22:31:00,59.3,15.8,29.63,SSW,213,3.0,3.0,18,0.00,,,0.00,0,WeatherCatV1.02B3,2013-03-23 05:31:00,
2013-03-22 22:36:00,58.3,12.3,29.63,West,266,2.0,5.0,16,0.00,,,0.00,0,WeatherCatV1.02B3,2013-03-23 05:36:00,
2013-03-22 22:41:00,58.5,9.5,29.63,NW,304,0.0,3.0,14,0.00,,,0.00,0,WeatherCatV1.02B3,2013-03-23 05:41:00,
2013-03-22 22:46:00,59.5,11.8,29.63,SSW,210,0.0,2.0,15,0.00,,,0.00,0,WeatherCatV1.02B3,2013-03-23 05:46:00,
2013-03-22 22:51:00,58.4,16.3,29.63,WSW,244,0.0,1.0,19,0.00,,,0.00,0,WeatherCatV1.02B3,2013-03-23 05:51:00,
2013-03-22 22:56:00,56.8,17.3,29.63,NW,323,2.0,5.0,21,0.00,,,0.00,0,WeatherCatV1.02B3,2013-03-23 05:56:00,
2013-03-22 23:01:00,57.0,13.9,29.63,NNE,24,0.0,1.0,18,0.00,,,0.00,0,WeatherCatV1.02B3,2013-03-23 06:01:00,
2013-03-22 23:06:00,58.5,9.5,29.63,North,5,0.0,6.0,14,0.00,,,0.00,0,WeatherCatV1.02B3,2013-03-23 06:06:00,
2013-03-22 23:11:00,59.1,10.0,29.63,WSW,245,2.0,12.0,14,0.00,,,0.00,0,WeatherCatV1.02B3,2013-03-23 06:11:00,
2013-03-22 23:16:00,59.8,12.1,29.63,ESE,121,0.0,0.0,15,0.00,,,0.00,0,WeatherCatV1.02B3,2013-03-23 06:16:00,
2013-03-22 23:21:00,58.6,12.6,29.63,NNW,344,2.0,4.0,16,0.00,,,0.00,0,WeatherCatV1.02B3,2013-03-23 06:21:00,
2013-03-22 23:26:00,58.1,7.5,29.63,East,82,2.0,4.0,13,0.00,,,0.00,0,WeatherCatV1.02B3,2013-03-23 06:26:00,
2013-03-22 23:31:00,59.4,10.2,29.63,NNE,28,1.0,3.0,14,0.00,,,0.00,0,WeatherCatV1.02B3,2013-03-23 06:31:00,
2013-03-22 23:36:00,59.6,11.9,29.63,South,173,1.0,2.0,15,0.00,,,0.00,0,WeatherCatV1.02B3,2013-03-23 06:36:00,
2013-03-22 23:41:00,57.8,14.6,29.63,NW,320,1.0,2.0,18,0.00,,,0.00,0,WeatherCatV1.02B3,2013-03-23 06:41:00,
2013-03-22 23:46:00,57.5,10.2,29.63,ENE,57,0.0,1.0,15,0.00,,,0.00,0,WeatherCatV1.02B3,2013-03-23 06:46:00,
2013-03-22 23:51:00,57.2,15.3,29.63,NNE,14,0.0,3.0,19,0.00,,,0.00,0,WeatherCatV1.02B3,2013-03-23 06:51:00,
2013-03-22 23:56:00,54.9,15.7,29.63,NNW,340,0.0,2.0,21,0.00,,,0.00,0,WeatherCatV1.02B3,2013-03-23 06:56:00,